Time;durP1;ratioP1;P1;durP2;ratioP2;P2;SDS_P1;SDS_P2;PMS_P1;PMS_P2;Temp;Humidity;BMP_temperature;BMP_pressure;BME280_temperature;BME280_humidity;BME280_pressure;Samples;Min_cycle;Max_cycle;Signal;HPM_P1;HPM_P2
2023/09/29 00:01:33;;;;;;;;;;;15.50;56.20;;;11.26;100.00;95896.00;5026051;28;19908;-44
2023/09/29 00:04:04;;;;;;;;;;;15.40;56.10;;;11.23;100.00;95894.66;5028717;28;19962;-45
2023/09/29 00:06:33;;;;;;;;;;;15.40;56.20;;;11.22;100.00;95894.88;5030769;28;19909;-44
2023/09/29 00:09:06;;;;;;;;;;;15.40;56.20;;;11.16;100.00;95894.09;5030768;28;19909;-41
2023/09/29 00:11:33;;;;;;;;;;;15.40;56.30;;;11.18;100.00;95894.63;5005601;28;19915;-42
2023/09/29 00:13:59;;;;;;;;;;;15.40;56.40;;;11.16;100.00;95898.63;5028053;28;19909;-42
2023/09/29 00:16:25;;;;;;;;;;;15.30;56.40;;;11.16;100.00;95894.09;5023783;28;19917;-43
2023/09/29 00:18:51;;;;;;;;;;;15.30;56.40;;;11.19;100.00;95896.25;5029306;28;20470;-46
2023/09/29 00:21:17;;;;;;;;;;;15.30;56.50;;;11.15;100.00;95897.00;5029966;28;20003;-41
2023/09/29 00:23:43;;;;;;;;;;;15.30;56.60;;;11.20;100.00;95897.84;5028467;28;19979;-44
2023/09/29 00:26:09;;;;;;;;;;;15.30;56.60;;;11.22;100.00;95900.22;5030487;28;20011;-46
2023/09/29 00:28:35;;;;;;;;;;;15.30;56.70;;;11.23;100.00;95899.97;5030169;28;19912;-47
2023/09/29 00:31:02;;;;;;;;;;;15.30;56.80;;;11.24;100.00;95895.44;5031006;28;19908;-44
2023/09/29 00:33:28;;;;;;;;;;;15.30;56.80;;;11.26;100.00;95898.66;5022436;28;19909;-42
2023/09/29 00:35:53;;;;;;;;;;;15.30;56.90;;;11.24;100.00;95900.78;5024491;28;20456;-44
2023/09/29 00:38:19;;;;;;;;;;;15.30;56.90;;;11.11;100.00;95888.72;5030766;28;20447;-47
2023/09/29 00:40:45;;;;;;;;;;;15.30;56.80;;;11.04;100.00;95896.16;5036489;28;19959;-45
2023/09/29 00:43:11;;;;;;;;;;;15.30;56.80;;;11.01;100.00;95894.81;5028642;28;20062;-45
2023/09/29 00:45:38;;;;;;;;;;;15.30;56.90;;;10.98;100.00;95891.88;5026700;28;20000;-43
2023/09/29 00:48:09;;;;;;;;;;;15.20;56.80;;;10.98;100.00;95891.88;5009690;28;20379;-45
2023/09/29 00:50:39;;;;;;;;;;;15.20;56.90;;;10.99;100.00;95888.13;5010933;28;20306;-45
2023/09/29 00:53:11;;;;;;;;;;;15.20;57.00;;;10.98;100.00;95890.00;5018607;28;19948;-43
2023/09/29 00:55:41;;;;;;;;;;;15.20;57.10;;;10.97;100.00;95883.06;5013573;28;19916;-43
2023/09/29 00:58:08;;;;;;;;;;;15.20;57.10;;;10.93;100.00;95895.28;5012433;28;20091;-43
2023/09/29 01:00:40;;;;;;;;;;;15.10;57.00;;;10.85;100.00;95885.94;5030374;28;19916;-44
2023/09/29 01:03:10;;;;;;;;;;;15.10;57.00;;;10.79;100.00;95888.84;5029779;28;19957;-44
2023/09/29 01:05:42;;;;;;;;;;;15.00;57.10;;;10.81;100.00;95882.19;5028574;28;19913;-43
2023/09/29 01:08:18;;;;;;;;;;;15.00;57.20;;;10.78;100.00;95889.88;5030584;28;19943;-43
2023/09/29 01:10:44;;;;;;;;;;;15.00;57.20;;;10.70;100.00;95885.84;5028627;28;19919;-44
2023/09/29 01:13:10;;;;;;;;;;;15.00;57.20;;;10.70;100.00;95883.19;5029983;28;20375;-47
2023/09/29 01:15:39;;;;;;;;;;;14.90;57.20;;;10.68;100.00;95882.63;5030060;28;20328;-52
2023/09/29 01:18:06;;;;;;;;;;;14.90;57.30;;;10.67;100.00;95878.38;5027869;28;19913;-48
2023/09/29 01:20:34;;;;;;;;;;;14.90;57.40;;;10.61;100.00;95874.88;5030517;28;20347;-51
2023/09/29 01:23:07;;;;;;;;;;;14.80;57.40;;;10.55;100.00;95878.56;5025261;28;19932;-48
2023/09/29 01:25:34;;;;;;;;;;;14.80;57.40;;;10.53;100.00;95869.22;5030186;28;19909;-49
2023/09/29 01:28:07;;;;;;;;;;;14.80;57.40;;;10.49;100.00;95874.25;5021032;28;19996;-48
2023/09/29 01:30:34;;;;;;;;;;;14.70;57.50;;;10.46;100.00;95882.75;5027044;28;19909;-48
2023/09/29 01:32:59;;;;;;;;;;;14.70;57.60;;;10.41;100.00;95886.19;5032960;28;19908;-51
2023/09/29 01:35:27;;;;;;;;;;;14.70;57.60;;;10.44;100.00;95886.75;5031766;28;19958;-47
2023/09/29 01:37:55;;;;;;;;;;;14.70;57.70;;;10.43;100.00;95885.94;5033783;28;19909;-49
2023/09/29 01:40:23;;;;;;;;;;;14.70;57.80;;;10.44;100.00;95887.56;5031588;28;19908;-48
2023/09/29 01:42:51;;;;;;;;;;;14.70;57.90;;;10.39;100.00;95898.97;5032759;28;19999;-49
2023/09/29 01:45:18;;;;;;;;;;;14.60;57.90;;;10.36;100.00;95890.69;5029029;28;20290;-49
2023/09/29 01:47:46;;;;;;;;;;;14.60;57.90;;;10.37;100.00;95892.28;5031794;28;19912;-49
2023/09/29 01:50:19;;;;;;;;;;;14.60;57.90;;;10.33;100.00;95886.66;5033158;28;19909;-49
2023/09/29 01:52:46;;;;;;;;;;;14.60;57.90;;;10.25;100.00;95887.13;5031140;28;19920;-50
2023/09/29 01:55:19;;;;;;;;;;;14.60;58.00;;;10.23;100.00;95883.09;5032995;28;19919;-49
2023/09/29 01:57:49;;;;;;;;;;;14.50;58.00;;;10.23;100.00;95885.78;5026717;28;19920;-42
2023/09/29 02:00:23;;;;;;;;;;;14.50;58.00;;;10.23;100.00;95901.75;5026574;28;19966;-49
2023/09/29 02:02:52;;;;;;;;;;;14.50;58.20;;;10.28;100.00;95897.28;5032827;28;20355;-49
2023/09/29 02:05:18;;;;;;;;;;;14.50;58.30;;;10.27;100.00;95901.00;5027612;28;19954;-48
2023/09/29 02:07:45;;;;;;;;;;;14.50;58.30;;;10.22;100.00;95892.97;5033064;28;19912;-46
2023/09/29 02:10:12;;;;;;;;;;;14.50;58.30;;;10.16;100.00;95896.63;5019864;28;19931;-46
2023/09/29 02:13:04;;;;;;;;;;;14.40;58.20;;;10.06;100.00;95897.34;5029900;28;19908;-50
2023/09/29 02:15:34;;;;;;;;;;;14.40;58.20;;;10.10;100.00;95903.75;5016409;28;19916;-50
2023/09/29 02:18:01;;;;;;;;;;;14.40;58.20;;;10.06;100.00;95908.00;5024384;28;21043;-48
2023/09/29 02:20:30;;;;;;;;;;;14.30;58.20;;;10.07;100.00;95903.47;5032407;28;19909;-50
2023/09/29 02:23:00;;;;;;;;;;;14.30;58.30;;;9.98;100.00;95908.44;5025531;28;19952;-50
2023/09/29 02:25:28;;;;;;;;;;;14.30;58.40;;;9.95;100.00;95904.44;5032624;28;19951;-48
2023/09/29 02:27:56;;;;;;;;;;;14.20;58.40;;;9.96;100.00;95902.56;5021230;28;20012;-43
2023/09/29 02:30:24;;;;;;;;;;;14.20;58.40;;;9.93;100.00;95905.72;5024271;28;19913;-47
2023/09/29 02:32:52;;;;;;;;;;;14.20;58.50;;;9.89;100.00;95905.44;5032530;28;19936;-46
2023/09/29 02:35:19;;;;;;;;;;;14.20;58.50;;;9.83;100.00;95909.09;5024945;28;19965;-45
2023/09/29 02:37:46;;;;;;;;;;;14.20;58.50;;;9.81;100.00;95905.91;5032428;28;20039;-46
2023/09/29 02:40:13;;;;;;;;;;;14.10;58.60;;;9.76;100.00;95905.03;5027913;28;19923;-48
2023/09/29 02:42:40;;;;;;;;;;;14.10;58.60;;;9.74;100.00;95905.28;5026497;28;19951;-44
2023/09/29 02:45:08;;;;;;;;;;;14.10;58.60;;;9.75;100.00;95903.44;5029248;28;20286;-49
2023/09/29 02:47:35;;;;;;;;;;;14.00;58.70;;;9.71;100.00;95901.28;5027860;28;20368;-51
2023/09/29 02:50:01;;;;;;;;;;;14.00;58.80;;;9.70;100.00;95902.31;5030860;28;19908;-46
2023/09/29 02:52:28;;;;;;;;;;;14.00;58.80;;;9.72;100.00;95907.41;5026245;28;20378;-48
2023/09/29 02:54:54;;;;;;;;;;;14.00;58.90;;;9.69;100.00;95908.72;5030406;28;19916;-47
2023/09/29 02:57:21;;;;;;;;;;;14.00;59.00;;;9.66;100.00;95909.22;5028878;28;19967;-46
2023/09/29 02:59:48;;;;;;;;;;;14.00;59.00;;;9.64;100.00;95897.22;5019693;28;19914;-46
2023/09/29 03:02:14;;;;;;;;;;;14.00;59.10;;;9.66;100.00;95906.53;5014171;28;20405;-46
2023/09/29 03:04:40;;;;;;;;;;;14.00;59.20;;;9.63;100.00;95903.59;5027326;28;19948;-45
2023/09/29 03:07:09;;;;;;;;;;;13.90;59.20;;;9.58;100.00;95909.66;5032063;28;19932;-47
2023/09/29 03:09:36;;;;;;;;;;;14.00;59.20;;;9.59;100.00;95905.94;5024656;28;19917;-46
2023/09/29 03:12:02;;;;;;;;;;;13.90;59.20;;;9.61;100.00;95903.81;5009915;28;19917;-46
2023/09/29 03:14:28;;;;;;;;;;;13.90;59.20;;;9.61;100.00;95901.16;5012195;28;20390;-48
2023/09/29 03:16:54;;;;;;;;;;;13.90;59.30;;;9.64;100.00;95908.66;5011290;28;19909;-50
2023/09/29 03:19:20;;;;;;;;;;;13.90;59.30;;;9.65;100.00;95907.63;5018910;28;19908;-48
2023/09/29 03:21:48;;;;;;;;;;;13.90;59.40;;;9.68;100.00;95911.59;5031406;28;20390;-42
2023/09/29 03:24:14;;;;;;;;;;;14.00;60.10;;;9.71;100.00;95913.75;5024219;28;19913;-49
2023/09/29 03:26:40;;;;;;;;;;;14.00;59.50;;;9.72;100.00;95912.72;5031783;28;20047;-46
2023/09/29 03:29:06;;;;;;;;;;;14.00;59.50;;;9.79;100.00;95910.66;5023708;28;20384;-48
2023/09/29 03:31:31;;;;;;;;;;;14.00;59.60;;;9.84;100.00;95909.91;5031590;28;19915;-51
2023/09/29 03:33:57;;;;;;;;;;;14.00;59.60;;;9.87;100.00;95906.72;5028491;28;19916;-47
2023/09/29 03:36:23;;;;;;;;;;;14.10;59.70;;;9.88;100.00;95919.81;5025990;28;19915;-47
2023/09/29 03:38:49;;;;;;;;;;;14.10;60.30;;;9.89;100.00;95908.09;5030915;28;19999;-47
2023/09/29 03:41:15;;;;;;;;;;;14.10;59.60;;;9.92;100.00;95917.44;5029171;28;19912;-48
2023/09/29 03:43:41;;;;;;;;;;;14.10;59.60;;;9.96;100.00;95929.19;5030439;28;19916;-44
2023/09/29 03:46:20;;;;;;;;;;;14.10;59.70;;;9.98;100.00;95927.06;5027730;28;19978;-43
2023/09/29 03:48:47;;;;;;;;;;;14.10;59.70;;;10.02;100.00;95933.50;5010194;28;19913;-44
2023/09/29 03:51:26;;;;;;;;;;;14.20;59.80;;;10.05;100.00;95938.31;5031175;28;20411;-43
2023/09/29 03:53:56;;;;;;;;;;;14.20;59.80;;;9.99;100.00;95934.00;5029131;28;20003;-49
2023/09/29 03:56:23;;;;;;;;;;;14.20;59.70;;;9.93;100.00;95930.50;5031283;28;19958;-46
2023/09/29 03:58:55;;;;;;;;;;;14.20;59.70;;;9.90;100.00;95924.84;5017275;28;19915;-46
2023/09/29 04:01:22;;;;;;;;;;;14.20;59.70;;;9.87;100.00;95922.69;5031411;28;20291;-45
2023/09/29 04:03:48;;;;;;;;;;;14.20;59.60;;;9.83;100.00;95919.75;5029568;28;19915;-50
2023/09/29 04:06:14;;;;;;;;;;;14.20;59.60;;;9.80;100.00;95925.56;5029058;28;19913;-47
2023/09/29 04:08:41;;;;;;;;;;;14.10;59.60;;;9.77;100.00;95915.41;5030801;28;19939;-40
2023/09/29 04:11:07;;;;;;;;;;;14.10;59.70;;;9.77;100.00;95922.59;5022481;28;19912;-41
2023/09/29 04:13:33;;;;;;;;;;;14.10;59.70;;;9.75;100.00;95917.56;5030912;28;20167;-41
2023/09/29 04:16:06;;;;;;;;;;;14.10;59.80;;;9.71;100.00;95916.41;5028710;28;19913;-40
2023/09/29 04:18:32;;;;;;;;;;;14.10;59.80;;;9.67;100.00;95913.47;5027879;28;19967;-41
2023/09/29 04:21:01;;;;;;;;;;;14.00;59.80;;;9.65;100.00;95918.25;5031011;28;19947;-44
2023/09/29 04:23:27;;;;;;;;;;;14.00;59.80;;;9.66;100.00;95916.38;5011441;28;20007;-43
2023/09/29 04:25:53;;;;;;;;;;;14.00;59.80;;;9.67;100.00;95910.00;5026222;28;19916;-41
2023/09/29 04:28:19;;;;;;;;;;;14.00;59.90;;;9.71;100.00;95911.09;5022867;28;19920;-46
2023/09/29 04:30:45;;;;;;;;;;;14.00;60.00;;;9.74;100.00;95915.91;5030746;28;19960;-47
2023/09/29 04:33:11;;;;;;;;;;;14.00;60.10;;;9.73;100.00;95916.97;5030351;28;19913;-49
2023/09/29 04:35:37;;;;;;;;;;;14.00;60.10;;;9.73;100.00;95924.97;5023309;28;19913;-46
2023/09/29 04:38:03;;;;;;;;;;;14.00;60.10;;;9.81;100.00;95931.69;5012864;28;19909;-49
2023/09/29 04:40:28;;;;;;;;;;;14.00;60.20;;;9.80;100.00;95930.09;5024780;28;19932;-47
2023/09/29 04:42:54;;;;;;;;;;;14.10;60.30;;;9.74;100.00;95931.88;5028938;28;20386;-47
2023/09/29 04:45:20;;;;;;;;;;;14.00;60.10;;;9.71;100.00;95930.56;5030665;28;20019;-48
2023/09/29 04:47:46;;;;;;;;;;;14.00;60.10;;;9.67;100.00;95937.41;5028629;28;20343;-45
2023/09/29 04:50:14;;;;;;;;;;;14.00;60.00;;;9.65;100.00;95938.69;5029783;28;20003;-52
2023/09/29 04:52:40;;;;;;;;;;;14.00;60.80;;;9.65;100.00;95942.19;5028639;28;19958;-49
2023/09/29 04:55:06;;;;;;;;;;;14.00;60.10;;;9.65;100.00;95942.19;5014060;28;19970;-48
2023/09/29 04:57:32;;;;;;;;;;;14.00;60.20;;;9.68;100.00;95952.34;5025918;28;20307;-49
2023/09/29 04:59:58;;;;;;;;;;;14.00;60.30;;;9.64;100.00;95956.53;5021749;28;19909;-51
2023/09/29 05:02:24;;;;;;;;;;;14.00;60.40;;;9.63;100.00;95954.13;5030249;28;19912;-47
2023/09/29 05:04:50;;;;;;;;;;;14.00;60.30;;;9.57;100.00;95955.91;5022726;28;19962;-50
2023/09/29 05:07:16;;;;;;;;;;;13.90;60.30;;;9.54;100.00;95958.28;5033312;28;19916;-45
2023/09/29 05:09:42;;;;;;;;;;;13.90;60.30;;;9.52;100.00;95953.19;5027199;28;19909;-45
2023/09/29 05:12:07;;;;;;;;;;;13.90;60.30;;;9.52;100.00;95953.19;5027025;28;19908;-47
2023/09/29 05:14:33;;;;;;;;;;;13.90;60.30;;;9.51;100.00;95964.88;5033825;28;19916;-49
2023/09/29 05:16:59;;;;;;;;;;;13.90;60.40;;;9.56;100.00;95964.97;5021983;28;20023;-50
2023/09/29 05:19:25;;;;;;;;;;;13.90;60.60;;;9.53;100.00;95965.47;5016268;28;19916;-46
2023/09/29 05:21:51;;;;;;;;;;;13.90;60.60;;;9.52;100.00;95957.72;5031377;28;19913;-49
2023/09/29 05:24:17;;;;;;;;;;;13.90;60.60;;;9.46;100.00;95960.31;5024372;28;19909;-48
2023/09/29 05:26:42;;;;;;;;;;;13.90;60.60;;;9.47;100.00;95969.09;5021307;28;19948;-48
2023/09/29 05:29:08;;;;;;;;;;;13.80;60.50;;;9.47;100.00;95967.25;5020668;28;19951;-47
2023/09/29 05:31:34;;;;;;;;;;;13.80;60.60;;;9.52;100.00;95971.81;5032657;28;20007;-45
2023/09/29 05:34:00;;;;;;;;;;;13.90;60.70;;;9.59;100.00;95975.09;5026659;28;19916;-46
2023/09/29 05:36:27;;;;;;;;;;;13.90;60.80;;;9.64;100.00;95974.34;5012927;28;20008;-46
2023/09/29 05:38:52;;;;;;;;;;;13.90;60.90;;;9.66;100.00;95977.56;5012694;28;19913;-45
2023/09/29 05:41:18;;;;;;;;;;;14.00;60.90;;;9.73;100.00;95983.50;5018899;28;19909;-48
2023/09/29 05:43:44;;;;;;;;;;;14.00;61.00;;;9.84;100.00;95979.06;5003770;28;19926;-45
2023/09/29 05:46:10;;;;;;;;;;;14.10;61.10;;;9.94;100.00;95987.19;4996461;28;20409;-46
2023/09/29 05:48:37;;;;;;;;;;;14.20;61.10;;;9.98;100.00;95982.97;4992788;28;19931;-45
2023/09/29 05:51:02;;;;;;;;;;;14.20;61.10;;;10.00;100.00;95994.16;4993223;28;19925;-43
2023/09/29 05:53:28;;;;;;;;;;;14.30;61.00;;;10.03;100.00;95998.16;5000429;28;19913;-47
2023/09/29 05:55:54;;;;;;;;;;;14.40;60.90;;;10.08;100.00;96003.56;4988451;28;19908;-46
2023/09/29 05:58:20;;;;;;;;;;;14.50;60.90;;;10.13;100.00;96001.75;5005112;28;19956;-49
2023/09/29 06:00:46;;;;;;;;;;;14.50;60.80;;;10.17;100.00;95999.38;4998920;28;20021;-44
2023/09/29 06:03:12;;;;;;;;;;;14.60;60.90;;;10.32;100.00;96002.22;4992452;28;19923;-47
2023/09/29 06:05:38;;;;;;;;;;;14.70;60.90;;;10.42;100.00;96006.84;5002768;28;19909;-46
2023/09/29 06:08:06;;;;;;;;;;;14.80;60.90;;;10.48;100.00;95999.69;4992385;28;20370;-45
2023/09/29 06:10:32;;;;;;;;;;;14.90;60.80;;;10.55;100.00;96006.41;5004818;28;20011;-50
2023/09/29 06:12:57;;;;;;;;;;;15.00;60.70;;;10.65;100.00;95998.53;4993425;28;20015;-49
2023/09/29 06:15:24;;;;;;;;;;;15.10;60.80;;;10.75;100.00;96003.13;4993451;28;20386;-44
2023/09/29 06:17:50;;;;;;;;;;;15.10;60.70;;;10.84;100.00;96012.25;5007651;28;19979;-43
2023/09/29 06:20:15;;;;;;;;;;;15.20;60.70;;;10.88;100.00;96010.69;4992321;28;19913;-43
2023/09/29 06:22:41;;;;;;;;;;;15.30;60.60;;;10.94;100.00;96021.41;4998401;28;20015;-41
2023/09/29 06:25:07;;;;;;;;;;;15.40;60.60;;;10.99;100.00;96024.88;4994327;28;20367;-40
2023/09/29 06:27:33;;;;;;;;;;;15.50;60.60;;;11.05;100.00;96020.38;4986940;28;19909;-41
2023/09/29 06:29:59;;;;;;;;;;;15.60;60.50;;;11.09;100.00;96024.13;4998910;28;20912;-43
2023/09/29 06:32:25;;;;;;;;;;;15.70;60.40;;;11.15;100.00;96027.66;4974475;28;20287;-46
2023/09/29 06:34:51;;;;;;;;;;;15.70;60.30;;;11.18;100.00;96024.47;5000305;28;19915;-45
2023/09/29 06:37:18;;;;;;;;;;;15.80;60.20;;;11.23;100.00;96033.31;4997078;28;19910;-44
2023/09/29 06:39:44;;;;;;;;;;;15.90;60.10;;;11.27;100.00;96038.94;4991915;28;20386;-48
2023/09/29 06:42:10;;;;;;;;;;;15.90;60.10;;;11.34;100.00;96039.50;5011076;28;19913;-46
2023/09/29 06:44:35;;;;;;;;;;;16.00;60.00;;;11.41;100.00;96034.75;5007635;28;19917;-46
2023/09/29 06:47:01;;;;;;;;;;;16.10;60.00;;;11.51;100.00;96037.47;5011628;28;19952;-46
2023/09/29 06:49:27;;;;;;;;;;;16.20;59.90;;;11.63;100.00;96042.59;5011919;28;19952;-49
2023/09/29 06:51:53;;;;;;;;;;;16.40;59.90;;;11.97;100.00;96039.56;5009956;28;19923;-47
2023/09/29 06:54:18;;;;;;;;;;;16.50;60.00;;;12.21;100.00;96046.03;5012176;28;20261;-43
2023/09/29 06:56:44;;;;;;;;;;;16.80;59.90;;;12.43;100.00;96040.47;5011863;28;19913;-43
2023/09/29 06:59:11;;;;;;;;;;;17.00;59.80;;;12.70;100.00;96050.13;5010642;28;20383;-43
2023/09/29 07:01:37;;;;;;;;;;;17.30;59.60;;;13.13;100.00;96050.66;5012206;28;19959;-43
2023/09/29 07:04:03;;;;;;;;;;;17.80;59.40;;;13.63;100.00;96051.66;5010519;28;19936;-46
2023/09/29 07:06:29;;;;;;;;;;;18.40;59.20;;;14.19;100.00;96050.66;5007800;28;19909;-44
2023/09/29 07:08:54;;;;;;;;;;;19.10;59.00;;;14.81;98.18;96043.84;5011457;28;19913;-45
2023/09/29 07:11:20;;;;;;;;;;;19.70;58.60;;;15.45;91.78;96047.34;5011074;28;19909;-44
2023/09/29 07:13:46;;;;;;;;;;;20.40;58.10;;;16.10;87.77;96047.69;5011981;28;20012;-47
2023/09/29 07:16:13;;;;;;;;;;;21.10;57.60;;;16.67;82.28;96053.09;5003769;28;19972;-47
2023/09/29 07:18:40;;;;;;;;;;;21.90;57.00;;;17.19;79.82;96048.53;5008614;28;19916;-48
2023/09/29 07:21:06;;;;;;;;;;;22.50;56.40;;;17.55;76.98;96064.88;5003862;28;19909;-45
2023/09/29 07:23:34;;;;;;;;;;;22.80;56.00;;;17.84;76.76;96058.47;5010837;28;19924;-44
2023/09/29 07:26:00;;;;;;;;;;;23.20;55.60;;;18.02;73.68;96056.78;5010877;28;19909;-46
2023/09/29 07:28:26;;;;;;;;;;;23.40;55.20;;;18.28;74.03;96062.44;5009838;28;19909;-46
2023/09/29 07:30:52;;;;;;;;;;;23.70;54.80;;;18.43;71.05;96062.09;5011744;28;19909;-46
2023/09/29 07:33:18;;;;;;;;;;;23.80;54.40;;;18.61;74.45;96064.94;5011281;28;20256;-45
2023/09/29 07:35:45;;;;;;;;;;;24.00;54.20;;;18.66;70.14;96054.84;5009653;28;19924;-50
2023/09/29 07:38:11;;;;;;;;;;;24.20;53.90;;;18.83;73.05;96061.53;5010724;28;20378;-52
2023/09/29 07:40:38;;;;;;;;;;;24.30;53.60;;;18.99;73.28;96068.19;5010352;28;19913;-49
2023/09/29 07:43:05;;;;;;;;;;;24.40;53.40;;;19.15;72.86;96052.41;5016232;28;19917;-48
2023/09/29 07:45:34;;;;;;;;;;;24.60;53.20;;;19.31;72.09;96060.94;5026441;28;19923;-48
2023/09/29 07:47:59;;;;;;;;;;;24.80;53.00;;;19.44;72.19;96064.66;5022477;28;19915;-52
2023/09/29 07:50:25;;;;;;;;;;;24.80;52.70;;;19.38;69.53;96066.69;5025389;28;19909;-53
2023/09/29 07:52:52;;;;;;;;;;;24.80;52.30;;;19.40;69.63;96065.28;5022363;28;19909;-43
2023/09/29 07:55:18;;;;;;;;;;;24.80;52.00;;;19.52;70.01;96067.38;4999939;28;19956;-48
2023/09/29 07:57:44;;;;;;;;;;;24.90;51.90;;;19.58;68.72;96065.34;5010549;28;19951;-46
2023/09/29 08:00:15;;;;;;;;;;;24.90;51.80;;;19.58;68.66;96068.84;5017104;28;19913;-53
2023/09/29 08:02:43;;;;;;;;;;;25.00;51.70;;;19.71;68.67;96069.91;5010432;28;19963;-49
2023/09/29 08:05:12;;;;;;;;;;;25.10;51.40;;;19.93;67.37;96079.03;5012715;28;19909;-51
2023/09/29 08:07:39;;;;;;;;;;;25.30;51.40;;;20.07;66.89;96080.53;5016305;28;19909;-52
2023/09/29 08:10:07;;;;;;;;;;;25.40;51.20;;;20.19;64.97;96087.28;5003047;28;19917;-53
2023/09/29 08:12:33;;;;;;;;;;;25.60;51.00;;;20.29;64.37;96098.59;5013599;28;19916;-51
2023/09/29 08:14:59;;;;;;;;;;;25.70;50.70;;;20.39;63.84;96094.78;5008288;28;20379;-50
2023/09/29 08:17:26;;;;;;;;;;;25.80;50.50;;;20.39;62.73;96094.00;5024585;28;20011;-48
2023/09/29 08:19:52;;;;;;;;;;;25.90;50.30;;;20.44;63.54;96096.56;5024192;28;19909;-49
2023/09/29 08:22:17;;;;;;;;;;;25.90;50.00;;;20.57;63.99;96103.78;5022145;28;19931;-49
2023/09/29 08:24:43;;;;;;;;;;;26.20;49.80;;;20.95;63.30;96100.47;5021105;28;19924;-47
2023/09/29 08:27:09;;;;;;;;;;;26.40;49.60;;;21.16;62.21;96096.00;5024328;28;19909;-46
2023/09/29 08:29:35;;;;;;;;;;;26.70;49.50;;;21.31;60.45;96105.56;5014616;28;19916;-47
2023/09/29 08:32:01;;;;;;;;;;;26.80;49.30;;;21.37;60.41;96095.38;5030324;28;19983;-48
2023/09/29 08:34:29;;;;;;;;;;;26.90;49.10;;;21.41;60.81;96105.25;5017185;28;20253;-48
2023/09/29 08:36:54;;;;;;;;;;;27.00;49.00;;;21.55;60.74;96096.16;5015697;28;19923;-45
2023/09/29 08:39:20;;;;;;;;;;;27.00;48.80;;;21.64;60.24;96097.72;5010601;28;19909;-51
2023/09/29 08:41:55;;;;;;;;;;;27.20;48.60;;;21.75;60.01;96089.22;5014587;28;19941;-49
2023/09/29 08:44:29;;;;;;;;;;;27.20;48.40;;;21.81;58.78;96091.47;5020518;28;19959;-48
2023/09/29 08:47:04;;;;;;;;;;;27.30;48.20;;;21.98;58.06;96100.66;5020089;28;19999;-46
2023/09/29 08:49:30;;;;;;;;;;;27.40;48.00;;;22.35;57.62;96099.09;5023716;28;19919;-47
2023/09/29 08:52:00;;;;;;;;;;;27.70;47.80;;;22.87;55.56;96096.81;5005533;28;19936;-49
2023/09/29 08:54:28;;;;;;;;;;;28.20;47.50;;;23.34;55.19;96095.81;5025933;28;19909;-49
2023/09/29 08:56:56;;;;;;;;;;;28.80;47.20;;;23.74;53.44;96093.38;5026749;28;19958;-46
2023/09/29 08:59:22;;;;;;;;;;;29.30;47.00;;;24.05;52.74;96092.06;5023338;28;20288;-51
2023/09/29 09:01:49;;;;;;;;;;;29.60;46.70;;;24.16;51.04;96098.66;5015463;28;19916;-48
2023/09/29 09:04:15;;;;;;;;;;;29.80;46.40;;;24.23;51.05;96101.59;5031344;28;19917;-49
2023/09/29 09:06:41;;;;;;;;;;;29.90;45.90;;;24.41;50.30;96095.91;5033466;28;20024;-46
2023/09/29 09:09:08;;;;;;;;;;;30.10;45.60;;;24.33;50.16;96105.81;5013829;28;19944;-52
2023/09/29 09:11:43;;;;;;;;;;;30.40;45.30;;;24.62;49.98;96101.28;5024682;28;20003;-47
2023/09/29 09:14:10;;;;;;;;;;;30.70;44.90;;;25.12;48.78;96089.13;5025665;28;19909;-44
2023/09/29 09:16:38;;;;;;;;;;;31.00;44.60;;;25.38;47.10;96085.97;5030186;28;19908;-48
2023/09/29 09:19:15;;;;;;;;;;;31.40;44.40;;;25.54;46.83;96095.03;5023839;28;19961;-46
2023/09/29 09:21:43;;;;;;;;;;;31.70;44.00;;;25.82;45.57;96092.28;5030550;28;19977;-46
2023/09/29 09:24:24;;;;;;;;;;;32.10;43.70;;;26.02;45.27;96087.72;5034385;28;19915;-44
2023/09/29 09:26:51;;;;;;;;;;;32.40;43.20;;;26.54;44.35;96083.09;5029894;28;19954;-45
2023/09/29 09:29:18;;;;;;;;;;;32.70;42.80;;;26.75;43.39;96082.81;5010890;28;19909;-48
2023/09/29 09:31:46;;;;;;;;;;;33.00;42.60;;;26.89;43.35;96074.91;5027308;28;20175;-48
2023/09/29 09:34:13;;;;;;;;;;;33.30;42.10;;;26.98;44.40;96077.44;5023121;28;20302;-50
2023/09/29 09:36:52;;;;;;;;;;;33.50;41.60;;;26.92;43.12;96071.47;5025725;28;19999;-46
2023/09/29 09:39:22;;;;;;;;;;;33.50;40.90;;;26.94;42.63;96071.09;5022256;28;19966;-47
2023/09/29 09:41:53;;;;;;;;;;;33.60;40.80;;;27.34;42.17;96067.25;5024922;28;19954;-44
2023/09/29 09:44:21;;;;;;;;;;;33.80;40.50;;;27.39;41.94;96073.22;5016945;28;19923;-51
2023/09/29 09:47:00;;;;;;;;;;;33.90;40.30;;;27.60;42.85;96072.03;5013611;28;19909;-47
2023/09/29 09:49:47;;;;;;;;;;;34.10;40.20;;;27.31;41.77;96079.69;5023212;28;19909;-46
2023/09/29 09:52:29;;;;;;;;;;;34.30;39.80;;;27.66;42.01;96074.13;5026405;28;19979;-46
2023/09/29 09:55:08;;;;;;;;;;;34.50;39.50;;;28.07;41.68;96082.66;5028859;28;19920;-49
2023/09/29 09:57:38;;;;;;;;;;;34.60;39.20;;;27.86;40.11;96077.66;5028662;28;19913;-47
2023/09/29 10:00:10;;;;;;;;;;;34.70;38.80;;;27.86;40.13;96074.91;5024983;28;19916;-47
2023/09/29 10:02:57;;;;;;;;;;;34.80;38.40;;;28.03;41.02;96081.03;5016818;28;19946;-51
2023/09/29 10:05:30;;;;;;;;;;;34.90;38.20;;;28.51;39.96;96068.53;5025888;28;19940;-49
2023/09/29 10:08:02;;;;;;;;;;;35.20;38.20;;;28.72;39.51;96068.06;5032630;28;19995;-45
2023/09/29 10:10:32;;;;;;;;;;;35.40;38.10;;;28.54;39.41;96059.56;5021643;28;20425;-46
2023/09/29 10:12:59;;;;;;;;;;;35.60;37.60;;;28.79;39.14;96065.41;5019650;28;19913;-48
2023/09/29 10:15:29;;;;;;;;;;;35.70;37.30;;;28.61;39.09;96061.63;5019428;28;20023;-50
2023/09/29 10:18:00;;;;;;;;;;;35.80;37.00;;;28.55;39.36;96060.34;5017020;28;20283;-47
2023/09/29 10:20:33;;;;;;;;;;;35.90;36.60;;;29.04;39.56;96064.97;5016540;28;19924;-50
2023/09/29 10:23:07;;;;;;;;;;;36.00;36.70;;;28.95;39.32;96054.25;5018036;28;19945;-46
2023/09/29 10:25:37;;;;;;;;;;;36.20;36.10;;;29.40;38.29;96048.97;5020393;28;19952;-47
2023/09/29 10:28:06;;;;;;;;;;;36.20;36.00;;;29.20;37.63;96049.09;5021336;28;19954;-51
2023/09/29 10:30:39;;;;;;;;;;;36.40;35.70;;;29.51;37.89;96053.38;5019580;28;19966;-52
2023/09/29 10:33:13;;;;;;;;;;;36.50;35.60;;;30.03;36.76;96058.22;5018839;28;20164;-48
2023/09/29 10:35:49;;;;;;;;;;;36.70;35.60;;;29.92;35.86;96058.09;5029069;28;19909;-48
2023/09/29 10:38:24;;;;;;;;;;;36.90;35.30;;;30.19;36.43;96056.81;5029784;28;19982;-52
2023/09/29 10:40:50;;;;;;;;;;;37.10;35.10;;;30.13;36.55;96049.28;5022680;28;19913;-50
2023/09/29 10:43:23;;;;;;;;;;;37.30;35.00;;;29.99;36.13;96049.94;5031955;28;19956;-53
2023/09/29 10:45:51;;;;;;;;;;;37.40;34.30;;;30.18;35.89;96057.19;5029065;28;20003;-49
2023/09/29 10:48:22;;;;;;;;;;;37.50;33.90;;;30.03;35.86;96053.50;5012262;28;19952;-54
2023/09/29 10:50:49;;;;;;;;;;;37.50;33.40;;;29.88;35.70;96047.09;5020972;28;19954;-47
2023/09/29 10:53:18;;;;;;;;;;;37.50;33.20;;;30.16;35.82;96043.81;5019354;28;19912;-53
2023/09/29 10:55:58;;;;;;;;;;;37.60;33.20;;;29.89;35.30;96045.91;5020269;28;20421;-51
2023/09/29 10:58:27;;;;;;;;;;;37.70;33.00;;;29.86;36.00;96045.91;5021745;28;19908;-49
2023/09/29 11:00:53;;;;;;;;;;;37.70;32.60;;;30.00;35.50;96039.75;5021038;28;19908;-44
2023/09/29 11:03:27;;;;;;;;;;;37.80;32.60;;;30.21;35.61;96028.97;5016149;28;19928;-48
2023/09/29 11:06:08;;;;;;;;;;;37.80;32.20;;;30.19;35.05;96034.84;5015516;28;19916;-49
2023/09/29 11:08:43;;;;;;;;;;;37.90;32.10;;;29.97;35.46;96030.31;5018600;28;19981;-49
2023/09/29 11:11:09;;;;;;;;;;;38.00;31.80;;;30.20;34.87;96030.91;5019402;28;20720;-50
2023/09/29 11:13:38;;;;;;;;;;;38.00;31.70;;;30.14;34.00;96029.66;5017286;28;19939;-47
2023/09/29 11:16:19;;;;;;;;;;;38.10;31.50;;;30.37;33.86;96021.22;5017699;28;19970;-49
2023/09/29 11:18:45;;;;;;;;;;;38.20;31.50;;;30.62;33.92;96029.63;5013539;28;19917;-46